createdAt,value
2022-09-22T00:00:04.936Z,100872.13
2022-09-22T00:00:36.376Z,100862.00
2022-09-22T00:01:07.915Z,100865.28
2022-09-22T00:01:39.439Z,100862.28
2022-09-22T00:02:10.974Z,100867.75
2022-09-22T00:02:42.506Z,100866.09
2022-09-22T00:03:13.984Z,100867.75
2022-09-22T00:03:45.400Z,100866.94
2022-09-22T00:04:16.837Z,100866.09
2022-09-22T00:04:48.366Z,100865.03
2022-09-22T00:05:19.770Z,100860.09
2022-09-22T00:05:51.285Z,100863.38
2022-09-22T00:06:22.717Z,100866.38
2022-09-22T00:06:54.166Z,100865.56
2022-09-22T00:07:25.571Z,100868.56
2022-09-22T00:07:56.996Z,100860.66
2022-09-22T00:08:28.417Z,100862.28
2022-09-22T00:08:59.853Z,100863.13
2022-09-22T00:09:31.268Z,100863.41
2022-09-22T00:10:02.744Z,100863.91
2022-09-22T00:10:34.144Z,100869.66
2022-09-22T00:11:05.580Z,100865.28
2022-09-22T00:11:37.012Z,100862.03
2022-09-22T00:12:08.540Z,100866.91
2022-09-22T00:12:39.941Z,100864.75
2022-09-22T00:13:11.386Z,100862.25
2022-09-22T00:13:42.778Z,100868.28
2022-09-22T00:14:14.231Z,100867.44
2022-09-22T00:14:45.724Z,100859.25
2022-09-22T00:15:17.162Z,100866.38
2022-09-22T00:15:48.601Z,100862.81
2022-09-22T00:16:20.006Z,100861.72
2022-09-22T00:16:51.475Z,100856.25
2022-09-22T00:17:22.931Z,100856.00
2022-09-22T00:17:54.377Z,100856.00
2022-09-22T00:18:25.772Z,100864.72
2022-09-22T00:18:57.209Z,100858.44
2022-09-22T00:19:28.586Z,100856.81
2022-09-22T00:19:59.984Z,100862.28
2022-09-22T00:20:31.422Z,100859.53
2022-09-22T00:21:02.839Z,100863.09
2022-09-22T00:21:34.280Z,100862.53
2022-09-22T00:22:05.782Z,100864.19
2022-09-22T00:22:37.218Z,100863.38
2022-09-22T00:23:08.619Z,100866.91
2022-09-22T00:23:40.116Z,100863.38
2022-09-22T00:24:11.592Z,100857.09
2022-09-22T00:24:42.974Z,100858.72
2022-09-22T00:25:14.401Z,100862.00
2022-09-22T00:25:45.956Z,100867.19
2022-09-22T00:26:17.378Z,100855.44
2022-09-22T00:26:48.767Z,100865.28
2022-09-22T00:27:20.238Z,100859.81
2022-09-22T00:27:51.670Z,100857.91
2022-09-22T00:28:23.082Z,100860.34
2022-09-22T00:28:54.556Z,100857.91
2022-09-22T00:29:26.002Z,100860.63
2022-09-22T00:29:57.591Z,100858.72
2022-09-22T00:30:29.012Z,100859.81
2022-09-22T00:31:00.591Z,100854.34
2022-09-22T00:31:32.031Z,100858.16
2022-09-22T00:32:07.192Z,100857.63
2022-09-22T00:32:39.056Z,100854.91
2022-09-22T00:33:10.532Z,100854.91
2022-09-22T00:33:41.915Z,100854.06
2022-09-22T00:34:13.333Z,100850.25
2022-09-22T00:34:44.767Z,100857.63
2022-09-22T00:35:16.173Z,100852.97
2022-09-22T00:35:47.588Z,100854.91
2022-09-22T00:36:19.056Z,100850.25
2022-09-22T00:36:50.469Z,100851.88
2022-09-22T00:37:21.902Z,100856.53
2022-09-22T00:37:53.348Z,100858.72
2022-09-22T00:38:24.793Z,100852.16
2022-09-22T00:38:56.216Z,100858.19
2022-09-22T00:39:27.708Z,100857.38
2022-09-22T00:39:59.175Z,100852.75
2022-09-22T00:40:30.668Z,100852.75
2022-09-22T00:41:02.161Z,100855.16
2022-09-22T00:41:33.769Z,100852.44
2022-09-22T00:42:05.287Z,100854.34
2022-09-22T00:42:36.696Z,100859.00
2022-09-22T00:43:08.149Z,100849.72
2022-09-22T00:43:39.611Z,100855.47
2022-09-22T00:44:11.100Z,100864.75
2022-09-22T00:44:42.493Z,100851.63
2022-09-22T00:45:13.902Z,100855.75
2022-09-22T00:45:45.318Z,100852.19
2022-09-22T00:46:16.792Z,100851.09
2022-09-22T00:46:48.362Z,100859.28
2022-09-22T00:47:19.839Z,100856.00
2022-09-22T00:47:51.314Z,100851.38
2022-09-22T00:48:22.783Z,100854.34
2022-09-22T00:48:54.277Z,100851.63
2022-09-22T00:49:25.810Z,100846.16
2022-09-22T00:49:57.320Z,100852.16
2022-09-22T00:50:28.767Z,100851.34
2022-09-22T00:51:00.181Z,100847.28
2022-09-22T00:51:31.656Z,100848.38
2022-09-22T00:52:03.062Z,100842.91
2022-09-22T00:52:34.487Z,100843.72
2022-09-22T00:53:05.886Z,100843.19
2022-09-22T00:53:37.297Z,100851.09
2022-09-22T00:54:08.764Z,100842.38
2022-09-22T00:54:40.180Z,100843.44
2022-09-22T00:55:11.650Z,100842.91
2022-09-22T00:55:43.125Z,100844.81
2022-09-22T00:56:14.521Z,100844.00
2022-09-22T00:56:45.980Z,100844.00
2022-09-22T00:57:17.369Z,100839.38
2022-09-22T00:57:48.783Z,100839.88
2022-09-22T00:58:20.330Z,100837.97
2022-09-22T00:58:51.723Z,100840.19
2022-09-22T00:59:23.205Z,100837.72
2022-09-22T00:59:54.607Z,100838.00
2022-09-22T01:00:26.103Z,100844.81
2022-09-22T01:00:57.678Z,100843.72
2022-09-22T01:01:29.224Z,100844.81
2022-09-22T01:02:00.794Z,100842.91
2022-09-22T01:02:32.263Z,100838.53
2022-09-22T01:03:03.672Z,100840.44
2022-09-22T01:03:35.223Z,100839.63
2022-09-22T01:04:06.646Z,100835.81
2022-09-22T01:04:38.084Z,100835.81
2022-09-22T01:05:09.497Z,100834.16
2022-09-22T01:05:40.909Z,100836.91
2022-09-22T01:06:12.411Z,100839.38
2022-09-22T01:06:43.826Z,100834.16
2022-09-22T01:07:15.267Z,100838.00
2022-09-22T01:07:46.708Z,100834.16
2022-09-22T01:08:18.112Z,100831.44
2022-09-22T01:08:49.513Z,100837.72
2022-09-22T01:09:20.966Z,100831.16
2022-09-22T01:09:52.419Z,100836.91
2022-09-22T01:10:23.823Z,100833.34
2022-09-22T01:10:55.228Z,100831.72
2022-09-22T01:11:26.735Z,100832.81
2022-09-22T01:11:58.212Z,100833.63
2022-09-22T01:12:29.664Z,100826.25
2022-09-22T01:13:01.087Z,100826.53
2022-09-22T01:13:32.611Z,100831.97
2022-09-22T01:14:04.064Z,100835.81
2022-09-22T01:14:35.428Z,100828.44
2022-09-22T01:15:06.885Z,100825.44
2022-09-22T01:15:38.317Z,100828.72
2022-09-22T01:16:09.866Z,100824.63
2022-09-22T01:16:41.409Z,100825.97
2022-09-22T01:17:12.848Z,100828.16
2022-09-22T01:17:44.272Z,100829.81
2022-09-22T01:18:15.661Z,100832.81
2022-09-22T01:18:47.050Z,100828.16
2022-09-22T01:19:18.477Z,100828.16
2022-09-22T01:19:49.897Z,100830.06
2022-09-22T01:20:21.324Z,100829.25
2022-09-22T01:20:52.729Z,100832.25
2022-09-22T01:21:24.216Z,100825.72
2022-09-22T01:21:55.656Z,100814.78
2022-09-22T01:22:27.118Z,100826.53
2022-09-22T01:22:58.505Z,100822.69
2022-09-22T01:23:29.965Z,100823.25
2022-09-22T01:24:01.469Z,100821.34
2022-09-22T01:24:32.890Z,100818.59
2022-09-22T01:25:04.370Z,100822.16
2022-09-22T01:25:35.795Z,100822.44
2022-09-22T01:26:07.281Z,100822.69
2022-09-22T01:26:38.686Z,100817.25
2022-09-22T01:27:10.050Z,100814.25
2022-09-22T01:27:41.445Z,100819.69
2022-09-22T01:28:12.840Z,100821.34
2022-09-22T01:28:44.199Z,100821.88
2022-09-22T01:29:15.673Z,100819.16
2022-09-22T01:29:47.113Z,100818.88
2022-09-22T01:30:18.784Z,100815.34
2022-09-22T01:30:50.236Z,100816.69
2022-09-22T01:31:21.780Z,100817.50
2022-09-22T01:31:53.253Z,100819.97
2022-09-22T01:32:24.755Z,100814.50
2022-09-22T01:32:56.162Z,100815.88
2022-09-22T01:33:27.571Z,100806.88
2022-09-22T01:33:59.011Z,100821.59
2022-09-22T01:34:30.439Z,100812.06
2022-09-22T01:35:01.897Z,100818.34
2022-09-22T01:35:33.272Z,100814.50
2022-09-22T01:36:04.658Z,100816.41
2022-09-22T01:36:36.219Z,100818.34
2022-09-22T01:37:07.676Z,100813.97
2022-09-22T01:37:39.093Z,100815.06
2022-09-22T01:38:10.477Z,100809.06
2022-09-22T01:38:41.872Z,100812.88
2022-09-22T01:39:13.288Z,100813.69
2022-09-22T01:39:44.715Z,100815.34
2022-09-22T01:40:16.252Z,100815.34
2022-09-22T01:40:47.834Z,100817.25
2022-09-22T01:41:19.331Z,100816.69
2022-09-22T01:41:50.810Z,100812.06
2022-09-22T01:42:22.275Z,100809.88
2022-09-22T01:42:53.659Z,100799.78
2022-09-22T01:43:25.088Z,100814.78
2022-09-22T01:43:56.524Z,100807.41
2022-09-22T01:44:27.917Z,100808.22
2022-09-22T01:44:59.433Z,100806.59
2022-09-22T01:45:30.784Z,100814.50
2022-09-22T01:46:02.223Z,100810.16
2022-09-22T01:46:33.981Z,100807.41
2022-09-22T01:47:05.543Z,100806.88
2022-09-22T01:47:36.971Z,100813.41
2022-09-22T01:48:08.461Z,100810.16
2022-09-22T01:48:39.837Z,100808.78
2022-09-22T01:49:11.244Z,100809.06
2022-09-22T01:49:42.707Z,100807.97
2022-09-22T01:50:14.122Z,100809.88
2022-09-22T01:50:45.498Z,100801.13
2022-09-22T01:51:16.932Z,100812.88
2022-09-22T01:51:48.380Z,100809.06
2022-09-22T01:52:19.872Z,100809.06
2022-09-22T01:52:51.235Z,100805.22
2022-09-22T01:53:22.665Z,100806.31
2022-09-22T01:53:54.125Z,100811.50
2022-09-22T01:54:25.528Z,100806.59
2022-09-22T01:54:56.938Z,100801.13
2022-09-22T01:55:28.355Z,100810.41
2022-09-22T01:55:59.871Z,100809.06
2022-09-22T01:56:31.289Z,100810.41
2022-09-22T01:57:02.846Z,100806.31
2022-09-22T01:57:34.226Z,100801.13
2022-09-22T01:58:05.614Z,100804.69
2022-09-22T01:58:37.033Z,100800.31
2022-09-22T01:59:08.482Z,100803.88
2022-09-22T01:59:39.920Z,100810.97
2022-09-22T02:00:11.309Z,100800.31
2022-09-22T02:00:42.723Z,100803.31
2022-09-22T02:01:14.983Z,100800.84
2022-09-22T02:01:46.575Z,100804.69
2022-09-22T02:02:18.253Z,100795.13
2022-09-22T02:02:49.838Z,100804.13
2022-09-22T02:03:21.390Z,100798.13
2022-09-22T02:03:52.807Z,100799.50
2022-09-22T02:04:24.251Z,100795.94
2022-09-22T02:04:55.653Z,100796.75
2022-09-22T02:05:27.009Z,100793.75
2022-09-22T02:05:58.386Z,100797.59
2022-09-22T02:06:29.804Z,100795.13
2022-09-22T02:07:01.258Z,100789.66
2022-09-22T02:07:32.617Z,100791.56
2022-09-22T02:08:04.027Z,100788.84
2022-09-22T02:08:35.434Z,100786.13
2022-09-22T02:09:07.052Z,100792.13
2022-09-22T02:09:38.595Z,100786.94
2022-09-22T02:10:10.036Z,100788.56
2022-09-22T02:10:41.429Z,100789.41
2022-09-22T02:11:12.905Z,100789.94
2022-09-22T02:11:44.421Z,100783.66
2022-09-22T02:12:15.893Z,100792.41
2022-09-22T02:12:47.319Z,100786.66
2022-09-22T02:13:18.736Z,100787.22
2022-09-22T02:13:50.185Z,100791.03
2022-09-22T02:14:21.590Z,100783.13
2022-09-22T02:14:53.005Z,100786.66
2022-09-22T02:15:24.404Z,100786.66
2022-09-22T02:15:55.903Z,100779.84
2022-09-22T02:16:27.357Z,100783.94
2022-09-22T02:16:58.878Z,100776.84
2022-09-22T02:17:34.955Z,100783.94
2022-09-22T02:18:06.734Z,100781.75
2022-09-22T02:18:38.148Z,100777.13
2022-09-22T02:19:13.083Z,100783.94
2022-09-22T02:19:45.023Z,100777.66
2022-09-22T02:20:16.516Z,100783.94
2022-09-22T02:20:47.888Z,100781.22
2022-09-22T02:21:19.399Z,100783.13
2022-09-22T02:21:50.819Z,100779.56
2022-09-22T02:22:22.415Z,100780.94
2022-09-22T02:22:53.859Z,100783.66
2022-09-22T02:23:25.231Z,100784.22
2022-09-22T02:23:56.700Z,100790.50
2022-09-22T02:24:28.121Z,100787.75
2022-09-22T02:24:59.550Z,100782.31
2022-09-22T02:25:31.141Z,100783.94
2022-09-22T02:26:02.640Z,100774.38
2022-09-22T02:26:34.096Z,100777.38
2022-09-22T02:27:05.492Z,100775.47
2022-09-22T02:27:37.057Z,100779.03
2022-09-22T02:28:08.503Z,100778.22
2022-09-22T02:28:39.951Z,100777.38
2022-09-22T02:29:11.346Z,100776.56
2022-09-22T02:29:42.798Z,100778.22
2022-09-22T02:30:14.250Z,100777.66
2022-09-22T02:31:04.343Z,100780.38
2022-09-22T02:31:37.171Z,100776.56
2022-09-22T02:32:08.783Z,100776.03
2022-09-22T02:32:40.255Z,100778.47
2022-09-22T02:33:11.636Z,100780.94
2022-09-22T02:33:43.120Z,100776.56
2022-09-22T02:34:14.554Z,100770.00
2022-09-22T02:34:45.947Z,100778.22
2022-09-22T02:35:17.355Z,100775.75
2022-09-22T02:35:48.746Z,100774.13
2022-09-22T02:36:20.236Z,100771.94
2022-09-22T02:36:51.680Z,100778.22
2022-09-22T02:37:23.227Z,100769.75
2022-09-22T02:37:54.662Z,100776.28
2022-09-22T02:38:26.195Z,100776.84
2022-09-22T02:38:57.594Z,100777.13
2022-09-22T02:39:29.016Z,100778.75
2022-09-22T02:40:00.470Z,100779.03
2022-09-22T02:40:32.124Z,100779.03
2022-09-22T02:41:03.758Z,100775.75
2022-09-22T02:41:35.305Z,100776.84
2022-09-22T02:42:06.772Z,100778.47
2022-09-22T02:42:38.274Z,100770.28
2022-09-22T02:43:09.714Z,100773.03
2022-09-22T02:43:41.138Z,100767.56
2022-09-22T02:44:12.629Z,100775.75
2022-09-22T02:44:44.054Z,100776.03
2022-09-22T02:45:15.477Z,100771.09
2022-09-22T02:45:46.873Z,100771.94
2022-09-22T02:46:18.410Z,100776.56
2022-09-22T02:46:49.955Z,100768.66
2022-09-22T02:47:21.391Z,100774.94
2022-09-22T02:47:52.854Z,100774.94
2022-09-22T02:48:24.225Z,100765.91
2022-09-22T02:48:55.737Z,100771.94
2022-09-22T02:49:27.360Z,100766.47
2022-09-22T02:49:58.817Z,100768.38
2022-09-22T02:50:30.186Z,100767.56
2022-09-22T02:51:01.576Z,100766.75
2022-09-22T02:51:33.079Z,100767.84
2022-09-22T02:52:04.464Z,100770.28
2022-09-22T02:52:35.997Z,100771.09
2022-09-22T02:53:07.414Z,100763.75
2022-09-22T02:53:38.851Z,100770.00
2022-09-22T02:54:10.252Z,100766.75
2022-09-22T02:54:41.668Z,100759.91
2022-09-22T02:55:13.088Z,100760.75
2022-09-22T02:55:44.494Z,100764.56
2022-09-22T02:56:15.914Z,100774.94
2022-09-22T02:56:47.345Z,100768.66
2022-09-22T02:57:18.750Z,100764.56
2022-09-22T02:57:50.231Z,100767.56
2022-09-22T02:58:21.719Z,100767.28
2022-09-22T02:58:57.648Z,100764.00
2022-09-22T02:59:29.789Z,100761.00
2022-09-22T03:00:01.216Z,100761.56
2022-09-22T03:00:32.602Z,100764.84
2022-09-22T03:01:04.219Z,100766.75
2022-09-22T03:01:35.808Z,100763.19
2022-09-22T03:02:07.235Z,100760.47
2022-09-22T03:02:38.700Z,100766.47
2022-09-22T03:03:10.141Z,100761.00
2022-09-22T03:03:41.621Z,100761.56
2022-09-22T03:04:13.034Z,100765.38
2022-09-22T03:04:44.561Z,100767.84
2022-09-22T03:05:16.098Z,100758.28
2022-09-22T03:05:47.590Z,100761.81
2022-09-22T03:06:19.023Z,100763.75
2022-09-22T03:06:50.420Z,100758.00
2022-09-22T03:07:21.902Z,100756.66
2022-09-22T03:07:53.265Z,100753.63
2022-09-22T03:08:24.813Z,100754.47
2022-09-22T03:08:56.219Z,100756.09
2022-09-22T03:09:27.618Z,100758.81
2022-09-22T03:09:58.954Z,100757.19
2022-09-22T03:10:30.387Z,100758.81
2022-09-22T03:11:01.802Z,100751.19
2022-09-22T03:11:33.225Z,100757.72
2022-09-22T03:12:04.604Z,100759.38
2022-09-22T03:12:36.072Z,100752.28
2022-09-22T03:13:16.486Z,100751.19
2022-09-22T03:13:48.775Z,100756.66
2022-09-22T03:14:20.173Z,100761.00
2022-09-22T03:14:51.604Z,100755.28
2022-09-22T03:15:27.045Z,100751.19
2022-09-22T03:15:58.740Z,100749.81
2022-09-22T03:16:30.162Z,100753.91
2022-09-22T03:17:01.639Z,100756.66
2022-09-22T03:17:33.246Z,100753.91
2022-09-22T03:18:04.663Z,100754.72
2022-09-22T03:18:36.125Z,100753.09
2022-09-22T03:19:07.597Z,100751.47
2022-09-22T03:19:38.999Z,100753.09
2022-09-22T03:20:10.454Z,100754.72
2022-09-22T03:20:41.883Z,100753.91
2022-09-22T03:21:13.426Z,100752.53
2022-09-22T03:21:44.869Z,100763.19
2022-09-22T03:22:16.265Z,100752.00
2022-09-22T03:22:47.712Z,100750.63
2022-09-22T03:23:19.095Z,100756.09
2022-09-22T03:23:50.583Z,100755.28
2022-09-22T03:24:21.999Z,100755.81
2022-09-22T03:24:53.419Z,100749.53
2022-09-22T03:25:24.861Z,100752.28
2022-09-22T03:25:56.294Z,100752.81
2022-09-22T03:26:27.745Z,100748.19
2022-09-22T03:26:59.157Z,100755.28
2022-09-22T03:27:30.520Z,100754.47
2022-09-22T03:28:01.995Z,100747.91
2022-09-22T03:28:33.504Z,100745.19
2022-09-22T03:29:05.047Z,100753.38
2022-09-22T03:29:36.543Z,100752.53
2022-09-22T03:30:07.936Z,100755.56
2022-09-22T03:30:39.416Z,100750.38
2022-09-22T03:31:10.943Z,100747.09
2022-09-22T03:31:42.378Z,100747.91
2022-09-22T03:32:13.805Z,100750.09
2022-09-22T03:32:45.196Z,100754.47
2022-09-22T03:33:16.668Z,100750.63
2022-09-22T03:33:52.451Z,100743.53
2022-09-22T03:34:24.230Z,100751.72
2022-09-22T03:34:55.682Z,100742.19
2022-09-22T03:35:27.066Z,100741.63
2022-09-22T03:35:58.473Z,100740.53
2022-09-22T03:36:29.911Z,100746.81
2022-09-22T03:37:01.380Z,100737.00
2022-09-22T03:37:32.798Z,100744.09
2022-09-22T03:38:04.183Z,100744.09
2022-09-22T03:38:35.621Z,100742.72
2022-09-22T03:39:07.139Z,100740.53
2022-09-22T03:39:38.732Z,100740.53
2022-09-22T03:40:10.352Z,100745.19
2022-09-22T03:40:41.904Z,100746.00
2022-09-22T03:41:13.337Z,100750.38
2022-09-22T03:41:44.847Z,100743.28
2022-09-22T03:42:16.271Z,100745.19
2022-09-22T03:42:47.747Z,100744.09
2022-09-22T03:43:19.147Z,100742.19
2022-09-22T03:43:50.573Z,100748.19
2022-09-22T03:44:22.036Z,100740.53
2022-09-22T03:44:53.487Z,100741.63
2022-09-22T03:45:24.882Z,100738.91
2022-09-22T03:45:56.357Z,100745.19
2022-09-22T03:46:27.884Z,100741.34
2022-09-22T03:46:59.331Z,100745.19
2022-09-22T03:47:30.744Z,100740.53
2022-09-22T03:48:02.156Z,100744.91
2022-09-22T03:48:33.723Z,100743.00
2022-09-22T03:49:05.111Z,100734.81
2022-09-22T03:49:36.501Z,100736.72
2022-09-22T03:50:07.991Z,100738.63
2022-09-22T03:50:39.387Z,100736.19
2022-09-22T03:51:10.943Z,100742.44
2022-09-22T03:51:42.343Z,100741.34
2022-09-22T03:52:13.820Z,100737.53
2022-09-22T03:52:45.321Z,100740.53
2022-09-22T03:53:16.723Z,100739.44
2022-09-22T03:53:48.163Z,100738.63
2022-09-22T03:54:19.542Z,100743.81
2022-09-22T03:54:50.986Z,100743.00
2022-09-22T03:55:22.529Z,100743.00
2022-09-22T03:55:53.915Z,100740.53
2022-09-22T03:56:25.307Z,100740.81
2022-09-22T03:56:56.735Z,100736.72
2022-09-22T03:57:28.168Z,100736.19
2022-09-22T03:57:59.582Z,100737.81
2022-09-22T03:58:30.988Z,100741.34
2022-09-22T03:59:02.617Z,100745.19
2022-09-22T03:59:34.091Z,100737.00
2022-09-22T04:00:05.488Z,100741.09
2022-09-22T04:00:36.979Z,100739.72
2022-09-22T04:01:08.507Z,100739.72
2022-09-22T04:01:40.005Z,100730.44
2022-09-22T04:02:11.581Z,100740.81
2022-09-22T04:02:43.143Z,100736.19
2022-09-22T04:03:14.590Z,100738.63
2022-09-22T04:03:45.980Z,100731.25
2022-09-22T04:04:17.359Z,100735.34
2022-09-22T04:04:48.904Z,100740.53
2022-09-22T04:05:20.356Z,100740.81
2022-09-22T04:05:51.927Z,100735.63
2022-09-22T04:06:23.351Z,100736.72
2022-09-22T04:06:54.879Z,100733.16
2022-09-22T04:07:26.292Z,100733.72
2022-09-22T04:07:57.691Z,100729.34
2022-09-22T04:08:29.113Z,100733.72
2022-09-22T04:09:00.529Z,100728.25
2022-09-22T04:09:31.916Z,100727.72
2022-09-22T04:10:03.400Z,100732.34
2022-09-22T04:10:34.808Z,100730.72
2022-09-22T04:11:06.294Z,100733.16
2022-09-22T04:11:37.732Z,100734.25
2022-09-22T04:12:09.206Z,100732.34
2022-09-22T04:12:40.610Z,100728.53
2022-09-22T04:13:12.009Z,100734.81
2022-09-22T04:13:46.462Z,100729.06
2022-09-22T04:14:18.188Z,100732.06
2022-09-22T04:14:49.607Z,100728.53
2022-09-22T04:15:21.013Z,100725.81
2022-09-22T04:15:52.494Z,100729.91
2022-09-22T04:16:23.961Z,100727.44
2022-09-22T04:16:55.482Z,100725.81
2022-09-22T04:17:26.975Z,100724.72
2022-09-22T04:17:58.536Z,100736.72
2022-09-22T04:18:29.989Z,100719.53
2022-09-22T04:19:01.485Z,100723.63
2022-09-22T04:19:32.889Z,100725.53
2022-09-22T04:20:04.301Z,100722.81
2022-09-22T04:20:35.725Z,100723.91
2022-09-22T04:21:07.152Z,100724.44
2022-09-22T04:21:38.547Z,100725.53
2022-09-22T04:22:09.947Z,100725.25
2022-09-22T04:22:41.371Z,100722.81
2022-09-22T04:23:12.872Z,100721.72
2022-09-22T04:23:44.299Z,100725.25
2022-09-22T04:24:15.755Z,100721.97
2022-09-22T04:24:47.128Z,100721.72
2022-09-22T04:25:18.564Z,100723.06
2022-09-22T04:25:50.057Z,100723.34
2022-09-22T04:26:21.435Z,100727.44
2022-09-22T04:27:15.647Z,100720.88
2022-09-22T04:27:44.350Z,100726.34
2022-09-22T04:28:15.917Z,100721.72
2022-09-22T04:28:47.335Z,100725.53
2022-09-22T04:29:18.720Z,100722.81
2022-09-22T04:29:50.233Z,100717.06
2022-09-22T04:30:21.619Z,100727.16
2022-09-22T04:30:53.116Z,100726.06
2022-09-22T04:31:24.588Z,100727.16
2022-09-22T04:31:56.019Z,100728.81
2022-09-22T04:32:27.454Z,100727.44
2022-09-22T04:32:58.885Z,100723.88
2022-09-22T04:33:30.401Z,100720.34
2022-09-22T04:34:05.557Z,100722.81
2022-09-22T04:34:38.966Z,100726.34
2022-09-22T04:35:10.402Z,100721.16
2022-09-22T04:35:41.880Z,100721.72
2022-09-22T04:36:13.304Z,100726.63
2022-09-22T04:36:44.754Z,100721.97
2022-09-22T04:37:16.201Z,100726.63
2022-09-22T04:37:47.641Z,100724.97
2022-09-22T04:38:19.070Z,100724.16
2022-09-22T04:38:50.585Z,100722.25
2022-09-22T04:39:23.949Z,100723.06
2022-09-22T04:39:55.539Z,100720.63
2022-09-22T04:40:26.983Z,100718.97
2022-09-22T04:40:58.503Z,100728.25
2022-09-22T04:41:29.917Z,100726.63
2022-09-22T04:42:01.396Z,100719.81
2022-09-22T04:42:32.849Z,100724.97
2022-09-22T04:43:04.255Z,100730.44
2022-09-22T04:43:35.713Z,100718.44
2022-09-22T04:44:07.225Z,100720.06
2022-09-22T04:44:38.686Z,100724.97
2022-09-22T04:45:10.110Z,100722.25
2022-09-22T04:45:41.568Z,100729.63
2022-09-22T04:46:13.071Z,100729.34
2022-09-22T04:46:44.504Z,100730.16
2022-09-22T04:47:15.908Z,100723.34
2022-09-22T04:47:47.334Z,100723.34
2022-09-22T04:48:18.747Z,100723.63
2022-09-22T04:48:50.323Z,100722.25
2022-09-22T04:49:21.790Z,100726.06
2022-09-22T04:49:53.233Z,100723.34
2022-09-22T04:50:24.612Z,100725.53
2022-09-22T04:50:56.016Z,100719.81
2022-09-22T04:51:27.428Z,100719.53
2022-09-22T04:51:58.853Z,100721.72
2022-09-22T04:52:30.374Z,100724.97
2022-09-22T04:53:01.800Z,100728.53
2022-09-22T04:53:33.236Z,100717.06
2022-09-22T04:54:04.693Z,100718.44
2022-09-22T04:54:36.117Z,100721.44
2022-09-22T04:55:07.536Z,100721.44
2022-09-22T04:55:38.930Z,100718.72
2022-09-22T04:56:10.331Z,100724.97
2022-09-22T04:56:41.740Z,100715.69
2022-09-22T04:57:16.019Z,100719.81
2022-09-22T04:57:49.783Z,100719.53
2022-09-22T04:58:21.171Z,100712.97
2022-09-22T04:58:52.558Z,100716.25
2022-09-22T04:59:23.999Z,100721.16
2022-09-22T04:59:55.488Z,100720.34
2022-09-22T05:00:26.889Z,100728.53
2022-09-22T05:00:58.306Z,100720.88
2022-09-22T05:01:29.821Z,100718.97
2022-09-22T05:02:01.279Z,100726.63
2022-09-22T05:02:32.709Z,100725.53
2022-09-22T05:03:04.117Z,100719.53
2022-09-22T05:03:35.646Z,100719.53
2022-09-22T05:04:07.004Z,100720.34
2022-09-22T05:04:38.505Z,100727.72
2022-09-22T05:05:09.987Z,100718.44
2022-09-22T05:05:41.393Z,100726.91
2022-09-22T05:06:12.880Z,100726.91
2022-09-22T05:06:44.286Z,100721.16
2022-09-22T05:07:15.761Z,100723.88
2022-09-22T05:07:47.142Z,100727.44
2022-09-22T05:08:18.634Z,100719.53
2022-09-22T05:08:50.077Z,100722.25
2022-09-22T05:09:21.531Z,100723.06
2022-09-22T05:09:52.951Z,100724.16
2022-09-22T05:10:24.361Z,100723.63
2022-09-22T05:10:55.770Z,100726.34
2022-09-22T05:11:27.192Z,100725.53
2022-09-22T05:11:58.626Z,100719.53
2022-09-22T05:12:30.051Z,100723.06
2022-09-22T05:13:01.486Z,100722.81
2022-09-22T05:13:32.926Z,100719.25
2022-09-22T05:14:04.456Z,100724.97
2022-09-22T05:14:35.871Z,100720.06
2022-09-22T05:15:07.389Z,100724.44
2022-09-22T05:15:38.815Z,100718.44
2022-09-22T05:16:10.373Z,100719.25
2022-09-22T05:16:41.928Z,100723.88
2022-09-22T05:17:13.458Z,100725.53
2022-09-22T05:17:44.950Z,100728.00
2022-09-22T05:18:16.439Z,100720.34
2022-09-22T05:18:48.001Z,100721.97
2022-09-22T05:19:19.542Z,100722.25
2022-09-22T05:19:51.011Z,100724.72
2022-09-22T05:20:22.526Z,100717.88
2022-09-22T05:20:54.025Z,100721.16
2022-09-22T05:21:25.588Z,100729.91
2022-09-22T05:21:57.038Z,100723.88
2022-09-22T05:22:28.677Z,100723.06
2022-09-22T05:23:00.173Z,100730.16
2022-09-22T05:23:31.730Z,100726.91
2022-09-22T05:24:03.272Z,100729.06
2022-09-22T05:24:34.771Z,100729.91
2022-09-22T05:25:06.180Z,100726.06
2022-09-22T05:25:37.588Z,100726.06
2022-09-22T05:26:09.008Z,100730.44
2022-09-22T05:26:40.415Z,100725.25
2022-09-22T05:27:11.831Z,100725.53
2022-09-22T05:27:43.243Z,100724.44
2022-09-22T05:28:14.674Z,100726.06
2022-09-22T05:28:46.075Z,100723.63
2022-09-22T05:29:17.641Z,100724.72
2022-09-22T05:29:49.093Z,100721.97
2022-09-22T05:30:20.513Z,100726.34
2022-09-22T05:30:51.983Z,100729.91
2022-09-22T05:31:23.518Z,100727.44
2022-09-22T05:31:55.031Z,100726.06
2022-09-22T05:32:26.485Z,100729.06
2022-09-22T05:32:57.931Z,100722.81
2022-09-22T05:33:29.442Z,100722.81
2022-09-22T05:34:00.960Z,100728.25
2022-09-22T05:34:32.509Z,100722.81
2022-09-22T05:35:03.913Z,100726.34
2022-09-22T05:35:37.001Z,100729.06
2022-09-22T05:36:08.659Z,100722.81
2022-09-22T05:36:40.217Z,100725.81
2022-09-22T05:37:11.614Z,100728.53
2022-09-22T05:37:42.992Z,100728.25
2022-09-22T05:38:14.435Z,100728.00
2022-09-22T05:38:45.840Z,100732.63
2022-09-22T05:39:17.299Z,100730.16
2022-09-22T05:39:48.746Z,100732.91
2022-09-22T05:40:20.218Z,100734.00
2022-09-22T05:40:51.732Z,100728.25
2022-09-22T05:41:23.176Z,100730.44
2022-09-22T05:41:54.555Z,100729.34
2022-09-22T05:42:25.977Z,100735.91
2022-09-22T05:42:57.370Z,100732.06
2022-09-22T05:43:28.776Z,100731.53
2022-09-22T05:44:00.219Z,100734.00
2022-09-22T05:44:31.690Z,100737.53
2022-09-22T05:45:03.142Z,100734.25
2022-09-22T05:45:34.636Z,100734.53
2022-09-22T05:46:06.091Z,100734.53
2022-09-22T05:46:37.527Z,100738.09
2022-09-22T05:47:09.054Z,100737.25
2022-09-22T05:47:40.465Z,100733.72
2022-09-22T05:48:12.004Z,100727.16
2022-09-22T05:48:43.429Z,100733.72
2022-09-22T05:49:14.897Z,100729.91
2022-09-22T05:49:46.296Z,100737.00
2022-09-22T05:50:17.703Z,100731.53
2022-09-22T05:50:49.069Z,100735.34
2022-09-22T05:51:20.457Z,100735.34
2022-09-22T05:51:51.825Z,100727.16
2022-09-22T05:52:23.334Z,100734.25
2022-09-22T05:52:54.764Z,100732.63
2022-09-22T05:53:26.251Z,100735.34
2022-09-22T05:53:57.716Z,100737.25
2022-09-22T05:54:29.275Z,100731.25
2022-09-22T05:55:00.664Z,100735.34
2022-09-22T05:55:32.181Z,100740.53
2022-09-22T05:56:03.689Z,100737.81
2022-09-22T05:56:35.264Z,100736.19
2022-09-22T05:57:06.652Z,100733.16
2022-09-22T05:57:38.083Z,100736.44
2022-09-22T05:58:09.546Z,100727.72
2022-09-22T05:58:40.937Z,100737.81
2022-09-22T05:59:12.391Z,100742.44
2022-09-22T05:59:43.794Z,100736.19
2022-09-22T06:00:15.196Z,100735.34